Time;durP1;ratioP1;P1;durP2;ratioP2;P2;SDS_P1;SDS_P2;PMS_P1;PMS_P2;Temp;Humidity;BMP_temperature;BMP_pressure;BME280_temperature;BME280_humidity;BME280_pressure;Samples;Min_cycle;Max_cycle;Signal;HPM_P1;HPM_P2
2022/11/15 00:01:26;;;;;;;111.18;64.03;;;;;;;11.53;66.28;100779.25;4944227;28;119935;-73
2022/11/15 00:04:10;;;;;;;116.10;64.00;;;;;;;11.52;66.77;100775.75;4941375;28;119895;-73
2022/11/15 00:06:54;;;;;;;118.80;67.43;;;;;;;11.51;67.69;100760.50;4942318;28;119584;-73
2022/11/15 00:09:39;;;;;;;117.35;65.82;;;;;;;11.55;67.95;100763.09;4938749;28;119899;-73
2022/11/15 00:12:23;;;;;;;115.82;65.05;;;;;;;11.56;68.03;100753.63;4945833;28;120489;-73
2022/11/15 00:15:07;;;;;;;119.07;67.03;;;;;;;11.59;68.24;100748.00;4946006;28;120533;-73
2022/11/15 00:17:52;;;;;;;116.72;64.93;;;;;;;11.56;68.11;100740.66;4944331;28;119612;-73
2022/11/15 00:20:40;;;;;;;120.25;66.72;;;;;;;11.53;68.15;100735.31;4934012;28;119711;-73
2022/11/15 00:23:24;;;;;;;114.75;65.53;;;;;;;11.55;67.96;100719.91;4936911;28;119953;-73
2022/11/15 00:26:12;;;;;;;116.32;65.03;;;;;;;11.61;67.90;100733.81;4938286;28;119909;-73
2022/11/15 00:28:56;;;;;;;110.70;63.45;;;;;;;11.60;67.15;100730.31;4934404;28;119884;-73
2022/11/15 00:31:40;;;;;;;122.15;65.28;;;;;;;11.60;67.13;100721.28;4941692;28;119907;-73
2022/11/15 00:34:25;;;;;;;123.30;67.97;;;;;;;11.61;67.66;100725.56;4938396;28;119866;-74
2022/11/15 00:37:09;;;;;;;123.27;67.30;;;;;;;11.60;67.34;100732.28;4937882;28;119515;-73
2022/11/15 00:39:54;;;;;;;117.73;64.90;;;;;;;11.60;67.00;100733.06;4936782;28;119911;-73
2022/11/15 00:42:38;;;;;;;123.85;66.78;;;;;;;11.59;67.22;100737.03;4941070;28;119478;-73
2022/11/15 00:45:23;;;;;;;117.78;66.10;;;;;;;11.57;66.75;100750.41;4933862;28;120032;-73
2022/11/15 00:48:09;;;;;;;122.40;65.87;;;;;;;11.55;66.82;100746.59;4937915;28;119679;-73
2022/11/15 00:50:53;;;;;;;122.07;65.95;;;;;;;11.49;66.63;100738.22;4930794;28;119868;-73
2022/11/15 00:53:37;;;;;;;129.55;68.25;;;;;;;11.47;67.56;100743.41;4937666;28;119992;-74
2022/11/15 00:56:22;;;;;;;122.97;67.60;;;;;;;11.48;67.74;100742.16;4937722;28;119748;-73
2022/11/15 00:59:06;;;;;;;119.32;65.70;;;;;;;11.50;67.20;100739.72;4932302;28;120229;-73
2022/11/15 01:01:51;;;;;;;132.73;70.45;;;;;;;11.48;67.70;100722.19;4930603;28;120250;-74
2022/11/15 01:04:35;;;;;;;129.50;70.80;;;;;;;11.48;68.16;100725.69;4933675;28;120140;-73
2022/11/15 01:07:20;;;;;;;126.25;69.80;;;;;;;11.48;68.19;100717.44;4938800;28;120103;-73
2022/11/15 01:10:05;;;;;;;126.18;70.70;;;;;;;11.51;68.34;100727.53;4933065;28;120401;-73
2022/11/15 01:12:49;;;;;;;111.43;64.50;;;;;;;11.51;67.53;100726.75;4932468;28;119615;-74
2022/11/15 01:15:34;;;;;;;123.00;67.15;;;;;;;11.54;67.03;100715.63;4928445;28;120809;-73
2022/11/15 01:18:19;;;;;;;118.68;65.05;;;;;;;11.51;66.49;100724.78;4935149;28;119825;-73
2022/11/15 01:21:09;;;;;;;129.23;69.40;;;;;;;11.49;67.10;100729.97;4933755;28;120031;-73
2022/11/15 01:23:55;;;;;;;125.32;66.53;;;;;;;11.45;66.84;100707.38;4934772;28;120125;-73
2022/11/15 01:26:39;;;;;;;129.53;69.03;;;;;;;11.42;66.83;100707.53;4928137;28;119848;-72
2022/11/15 01:29:26;;;;;;;126.18;68.60;;;;;;;11.41;67.37;100708.75;4935135;28;120021;-73
2022/11/15 01:32:11;;;;;;;134.10;71.17;;;;;;;11.44;68.08;100702.34;4919944;28;119759;-74
2022/11/15 01:34:55;;;;;;;146.15;75.15;;;;;;;11.49;69.54;100690.75;4930205;28;120006;-73
2022/11/15 01:37:39;;;;;;;141.50;75.60;;;;;;;11.57;69.97;100692.72;4934030;28;119737;-74
2022/11/15 01:40:23;;;;;;;132.77;73.03;;;;;;;11.72;69.71;100692.91;4922119;28;120198;-73
2022/11/15 01:43:24;;;;;;;131.97;71.63;;;;;;;11.84;69.75;100691.28;4934959;28;119849;-72
2022/11/15 01:46:34;;;;;;;128.88;71.68;;;;;;;11.90;69.39;100684.69;4935760;28;120166;-73
2022/11/15 01:49:21;;;;;;;133.57;72.15;;;;;;;12.01;69.72;100692.47;4929577;28;119867;-73
2022/11/15 01:52:12;;;;;;;133.00;71.47;;;;;;;12.09;69.70;100682.69;4934396;28;120328;-72
2022/11/15 01:55:01;;;;;;;124.82;69.53;;;;;;;12.24;69.72;100677.31;4930897;28;120231;-72
2022/11/15 01:57:50;;;;;;;114.35;66.95;;;;;;;12.36;69.03;100681.13;4934581;28;119404;-72
2022/11/15 02:00:34;;;;;;;113.17;66.53;;;;;;;12.46;68.56;100666.09;4933867;28;119863;-72
2022/11/15 02:03:20;;;;;;;116.13;67.15;;;;;;;12.52;68.31;100669.75;4932720;28;122763;-73
2022/11/15 02:06:05;;;;;;;110.80;64.50;;;;;;;12.52;67.73;100653.22;4935300;28;119730;-73
2022/11/15 02:08:50;;;;;;;113.40;64.72;;;;;;;12.52;67.19;100664.25;4941480;28;120426;-73
2022/11/15 02:11:35;;;;;;;116.32;66.32;;;;;;;12.45;67.32;100650.81;4932477;28;119624;-73
2022/11/15 02:14:20;;;;;;;117.57;66.65;;;;;;;12.42;66.87;100655.25;4924731;28;121276;-73
2022/11/15 02:17:52;;;;;;;118.63;67.88;;;;;;;12.37;67.14;100641.38;4934544;28;120568;-73
2022/11/15 02:20:52;;;;;;;115.60;65.78;;;;;;;12.32;67.16;100642.78;4929822;28;119760;-73
2022/11/15 02:24:25;;;;;;;116.28;66.25;;;;;;;12.23;67.13;100640.78;4935633;28;119627;-73
2022/11/15 02:27:30;;;;;;;118.97;66.43;;;;;;;12.21;67.60;100645.25;4891850;28;119957;-73
2022/11/15 02:31:22;;;;;;;118.90;67.10;;;;;;;12.16;67.79;100651.38;4917660;28;119677;-73
2022/11/15 02:34:28;;;;;;;116.00;65.30;;;;;;;12.15;68.21;100647.09;4934988;28;120158;-74
2022/11/15 02:37:15;;;;;;;114.80;65.37;;;;;;;12.20;68.17;100654.72;4937630;28;120117;-73
2022/11/15 02:40:37;;;;;;;108.13;63.63;;;;;;;12.28;68.96;100659.41;4932295;28;119997;-72
2022/11/15 02:49:53;;;;;;;101.37;59.97;;;;;;;12.51;68.08;100632.44;4936562;28;119935;-73
2022/11/15 02:52:38;;;;;;;95.15;58.40;;;;;;;12.56;67.78;100631.84;4937779;28;120079;-73
2022/11/15 02:55:50;;;;;;;91.47;57.80;;;;;;;12.58;67.43;100638.41;4937644;28;119628;-73
2022/11/15 02:58:43;;;;;;;89.90;55.57;;;;;;;12.62;67.39;100634.72;4938993;28;120494;-74
2022/11/15 03:02:10;;;;;;;90.85;58.60;;;;;;;12.63;67.05;100631.50;4936219;28;120031;-72
2022/11/15 03:05:00;;;;;;;88.03;54.90;;;;;;;12.65;66.89;100639.28;4943525;28;119733;-73
2022/11/15 03:08:01;;;;;;;86.17;53.90;;;;;;;12.68;66.82;100633.59;4940128;28;120363;-74
2022/11/15 03:11:06;;;;;;;86.30;54.67;;;;;;;12.73;66.32;100629.47;4935123;28;120175;-72
2022/11/15 03:14:02;;;;;;;83.97;54.60;;;;;;;12.72;66.49;100617.69;4935177;28;120571;-74
2022/11/15 03:17:11;;;;;;;81.00;53.63;;;;;;;12.75;66.35;100621.50;4936980;28;120200;-73
2022/11/15 03:20:01;;;;;;;78.05;52.63;;;;;;;12.76;65.79;100618.28;4944413;28;119536;-73
2022/11/15 03:22:48;;;;;;;82.03;53.17;;;;;;;12.78;66.20;100615.09;4939205;28;119663;-73
2022/11/15 03:25:34;;;;;;;79.32;51.63;;;;;;;12.76;65.53;100607.25;4938354;28;119869;-73
2022/11/15 03:28:24;;;;;;;78.55;51.58;;;;;;;12.73;65.37;100608.19;4940768;28;119517;-72
2022/11/15 03:34:32;;;;;;;76.47;51.17;;;;;;;12.67;65.88;100599.06;4937808;28;120089;-72
2022/11/15 03:37:20;;;;;;;75.07;50.40;;;;;;;12.64;65.19;100599.25;4932301;28;119796;-73
2022/11/15 03:40:05;;;;;;;76.43;51.05;;;;;;;12.53;65.08;100583.22;4938962;28;119517;-73
2022/11/15 03:43:07;;;;;;;78.87;52.10;;;;;;;12.48;64.53;100587.38;4939532;28;119761;-74
2022/11/15 03:46:02;;;;;;;82.25;53.42;;;;;;;12.35;64.81;100588.81;4939627;28;121004;-73
2022/11/15 03:49:00;;;;;;;81.45;52.53;;;;;;;12.21;64.84;100574.50;4950627;28;120566;-73
2022/11/15 03:51:45;;;;;;;84.80;53.28;;;;;;;12.17;64.92;100573.91;4936041;28;119614;-74
2022/11/15 03:54:29;;;;;;;83.22;53.78;;;;;;;12.09;65.41;100569.97;4941989;28;120459;-73
2022/11/15 03:57:14;;;;;;;86.30;54.23;;;;;;;12.03;65.06;100574.56;4935540;28;120485;-73
2022/11/15 03:59:58;;;;;;;88.57;54.47;;;;;;;11.98;64.81;100575.94;4945096;28;119862;-74
2022/11/15 04:02:42;;;;;;;85.47;54.20;;;;;;;11.91;64.91;100581.78;4944575;28;119511;-75
2022/11/15 04:05:27;;;;;;;89.53;55.33;;;;;;;11.86;65.03;100587.13;4941374;28;120273;-75
2022/11/15 04:08:11;;;;;;;91.43;56.58;;;;;;;11.78;65.37;100586.66;4943901;28;121296;-75
2022/11/15 04:10:55;;;;;;;85.57;55.20;;;;;;;11.75;65.57;100597.78;4945300;28;120079;-74
2022/11/15 04:13:40;;;;;;;90.72;56.33;;;;;;;11.64;65.46;100596.28;4945487;28;120143;-75
2022/11/15 04:16:24;;;;;;;94.97;58.65;;;;;;;11.59;65.60;100596.13;4937522;28;119475;-75
2022/11/15 04:25:15;;;;;;;92.47;57.10;;;;;;;11.39;65.90;100591.13;4942195;28;120118;-75
2022/11/15 04:28:00;;;;;;;96.13;58.23;;;;;;;11.37;66.07;100594.31;4945014;28;119740;-73
2022/11/15 04:30:44;;;;;;;97.20;59.67;;;;;;;11.31;65.97;100578.88;4944455;28;120124;-74
2022/11/15 04:33:29;;;;;;;94.60;59.03;;;;;;;11.25;65.96;100592.47;4939836;28;120073;-75
2022/11/15 04:39:16;;;;;;;97.03;59.92;;;;;;;11.17;66.23;100593.25;4943151;28;120966;-73
2022/11/15 04:42:00;;;;;;;98.75;59.92;;;;;;;11.12;66.28;100591.06;4943526;28;120909;-73
2022/11/15 04:44:44;;;;;;;99.68;60.35;;;;;;;11.09;66.18;100592.75;4949532;28;119541;-74
2022/11/15 04:47:29;;;;;;;99.25;61.00;;;;;;;11.05;65.96;100603.13;4943754;28;121011;-74
2022/11/15 04:50:14;;;;;;;98.13;60.30;;;;;;;11.00;66.12;100590.75;4940758;28;120076;-74
2022/11/15 04:52:58;;;;;;;101.07;61.25;;;;;;;10.95;65.89;100585.88;4944978;28;119595;-73
2022/11/15 04:55:46;;;;;;;103.32;60.53;;;;;;;10.94;66.00;100598.09;4938964;28;120474;-74
2022/11/15 04:58:30;;;;;;;98.03;59.90;;;;;;;10.87;66.02;100606.59;4940705;28;119983;-74
2022/11/15 05:01:15;;;;;;;101.03;60.40;;;;;;;10.87;65.76;100614.81;4943895;28;119628;-73
2022/11/15 05:04:21;;;;;;;107.32;63.22;;;;;;;10.82;66.21;100615.41;4944596;28;119658;-73
2022/11/15 05:07:05;;;;;;;100.53;61.05;;;;;;;10.76;66.73;100614.50;4941318;28;120064;-74
2022/11/15 05:09:49;;;;;;;102.53;60.80;;;;;;;10.73;66.47;100616.16;4947514;28;119130;-74
2022/11/15 05:12:33;;;;;;;101.97;60.95;;;;;;;10.70;66.45;100627.28;4942388;28;119902;-74
2022/11/15 05:15:19;;;;;;;107.30;62.05;;;;;;;10.67;66.57;100617.22;4938095;28;119479;-74
2022/11/15 05:18:03;;;;;;;98.38;61.55;;;;;;;10.64;66.39;100621.59;4941350;28;120023;-74
2022/11/15 05:20:48;;;;;;;105.43;61.72;;;;;;;10.61;66.38;100619.00;4956270;28;119609;-74
2022/11/15 05:23:32;;;;;;;103.88;62.30;;;;;;;10.59;66.36;100611.22;4938814;28;120194;-74
2022/11/15 05:26:18;;;;;;;99.55;60.97;;;;;;;10.55;66.40;100604.34;4943479;28;120177;-73
2022/11/15 05:29:02;;;;;;;101.88;61.10;;;;;;;10.53;65.92;100606.78;4943594;28;119715;-73
2022/11/15 05:31:47;;;;;;;102.05;61.30;;;;;;;10.47;66.27;100598.41;4944817;28;120114;-73
2022/11/15 05:34:32;;;;;;;99.47;60.90;;;;;;;10.44;66.05;100604.78;4949025;28;120074;-74
2022/11/15 05:37:17;;;;;;;104.82;62.75;;;;;;;10.47;66.60;100601.13;4942223;28;120270;-73
2022/11/15 05:40:02;;;;;;;105.13;62.55;;;;;;;10.44;66.69;100611.03;4947828;28;119671;-73
2022/11/15 05:42:47;;;;;;;98.23;61.60;;;;;;;10.42;66.62;100618.19;4944602;28;119524;-73
2022/11/15 05:45:33;;;;;;;104.63;62.90;;;;;;;10.39;66.33;100611.59;4944228;28;119645;-72
2022/11/15 05:48:17;;;;;;;103.25;61.45;;;;;;;10.37;66.98;100635.97;4942924;28;119910;-73
2022/11/15 05:51:03;;;;;;;104.03;60.95;;;;;;;10.36;66.53;100633.66;4940757;28;119853;-74
2022/11/15 05:53:48;;;;;;;106.80;61.37;;;;;;;10.34;66.42;100620.41;4943194;28;119567;-74
2022/11/15 05:56:33;;;;;;;103.57;61.60;;;;;;;10.31;66.56;100604.88;4946535;28;120715;-73
2022/11/15 05:59:18;;;;;;;104.03;62.28;;;;;;;10.27;66.91;100608.97;4940272;28;119927;-74
2022/11/15 06:02:02;;;;;;;103.63;61.45;;;;;;;10.25;66.94;100601.19;4943914;28;119819;-73
2022/11/15 06:04:46;;;;;;;99.93;61.07;;;;;;;10.21;67.27;100586.88;4945266;28;119688;-73
2022/11/15 06:07:30;;;;;;;104.18;62.60;;;;;;;10.23;67.12;100603.63;4940696;28;120267;-74
2022/11/15 06:10:15;;;;;;;105.05;61.72;;;;;;;10.23;67.53;100609.09;4939206;28;120262;-74
2022/11/15 06:13:04;;;;;;;93.80;59.20;;;;;;;10.25;67.35;100614.91;4944659;28;120025;-74
2022/11/15 06:15:57;;;;;;;102.70;60.57;;;;;;;10.24;66.84;100623.56;4941949;28;119672;-73
2022/11/15 06:18:41;;;;;;;103.10;61.67;;;;;;;10.25;67.12;100625.88;4944507;28;120407;-74
2022/11/15 06:21:27;;;;;;;98.70;61.00;;;;;;;10.27;67.44;100628.16;4946331;28;119792;-74
2022/11/15 06:24:12;;;;;;;97.95;59.45;;;;;;;10.28;67.36;100633.19;4940922;28;121141;-73
2022/11/15 06:26:57;;;;;;;100.93;60.08;;;;;;;10.29;66.67;100625.72;4942322;28;120336;-74
2022/11/15 06:29:41;;;;;;;98.47;59.63;;;;;;;10.31;66.94;100637.00;4944628;28;119891;-73
2022/11/15 06:32:26;;;;;;;100.67;60.87;;;;;;;10.29;66.80;100631.22;4941644;28;119943;-73
2022/11/15 06:35:10;;;;;;;100.03;61.70;;;;;;;10.30;66.74;100628.00;4934892;28;119580;-74
2022/11/15 06:37:55;;;;;;;94.70;58.78;;;;;;;10.33;67.05;100646.31;4947376;28;120131;-74
2022/11/15 06:40:40;;;;;;;98.10;60.53;;;;;;;10.29;67.15;100640.19;4948385;28;119863;-73
2022/11/15 06:43:24;;;;;;;101.97;62.75;;;;;;;10.31;68.09;100640.50;4943352;28;119956;-74
2022/11/15 06:46:09;;;;;;;97.38;60.75;;;;;;;10.38;68.87;100626.53;4949861;28;119331;-72
2022/11/15 06:48:53;;;;;;;94.00;59.10;;;;;;;10.49;69.16;100628.09;4944721;28;119840;-74
2022/11/15 06:51:54;;;;;;;90.80;57.53;;;;;;;10.63;68.78;100633.78;4945431;28;119587;-74
2022/11/15 06:54:39;;;;;;;87.57;56.47;;;;;;;10.75;68.17;100641.16;4944235;28;120256;-72
2022/11/15 06:57:26;;;;;;;86.13;56.20;;;;;;;10.84;67.98;100629.44;4945743;28;119681;-73
2022/11/15 07:00:12;;;;;;;78.97;54.10;;;;;;;10.97;67.63;100630.09;4945894;28;120831;-74
2022/11/15 07:03:00;;;;;;;81.17;54.23;;;;;;;11.07;67.09;100617.16;4943011;28;119861;-74
2022/11/15 07:05:55;;;;;;;84.22;54.22;;;;;;;11.15;67.33;100612.91;4944993;28;119653;-74
2022/11/15 07:08:41;;;;;;;78.13;52.50;;;;;;;11.27;67.19;100624.97;4947046;28;119521;-74
2022/11/15 07:11:25;;;;;;;77.07;51.58;;;;;;;11.28;67.35;100610.78;4947841;28;119391;-74
2022/11/15 07:14:10;;;;;;;75.30;49.50;;;;;;;11.46;67.31;100621.00;4946189;28;119983;-73
2022/11/15 07:16:54;;;;;;;72.47;48.88;;;;;;;11.54;66.84;100619.47;4946512;28;119215;-74
2022/11/15 07:19:39;;;;;;;70.57;48.70;;;;;;;11.65;66.52;100617.06;4946247;28;120082;-74
2022/11/15 07:22:23;;;;;;;69.65;48.28;;;;;;;11.75;66.13;100628.03;4938107;28;120097;-74
2022/11/15 07:25:09;;;;;;;69.78;48.55;;;;;;;11.81;66.25;100624.22;4901591;28;119987;-73
2022/11/15 07:27:58;;;;;;;69.15;48.15;;;;;;;11.88;66.20;100617.66;4954222;28;120301;-73
2022/11/15 07:30:42;;;;;;;73.22;49.28;;;;;;;11.96;65.89;100625.13;4945254;28;119782;-74
2022/11/15 07:33:27;;;;;;;66.95;47.20;;;;;;;12.00;66.17;100613.97;4941653;28;119866;-73
2022/11/15 07:36:11;;;;;;;68.53;47.60;;;;;;;12.10;66.18;100617.47;4944315;28;119947;-74
2022/11/15 07:38:56;;;;;;;66.35;46.53;;;;;;;12.14;66.21;100613.34;4941132;28;120174;-74
2022/11/15 07:41:40;;;;;;;64.47;45.13;;;;;;;12.17;65.63;100628.91;4946352;28;119740;-74
2022/11/15 07:44:25;;;;;;;70.20;47.55;;;;;;;12.21;65.98;100624.00;4937839;28;120352;-74
2022/11/15 07:47:09;;;;;;;69.05;46.42;;;;;;;12.29;66.11;100627.94;4944280;28;121059;-73
2022/11/15 07:49:54;;;;;;;64.57;45.57;;;;;;;12.35;66.03;100633.59;4944721;28;120350;-74
2022/11/15 07:52:58;;;;;;;63.80;44.80;;;;;;;12.42;65.68;100632.50;4937199;28;119870;-74
2022/11/15 07:56:06;;;;;;;64.00;44.70;;;;;;;12.47;65.58;100618.88;4937505;28;120049;-74
2022/11/15 07:59:06;;;;;;;67.60;45.13;;;;;;;12.50;65.06;100619.94;4939144;28;119904;-74
2022/11/15 08:01:50;;;;;;;70.25;45.45;;;;;;;12.51;64.82;100619.47;4946369;28;119362;-74
2022/11/15 08:04:35;;;;;;;75.20;45.92;;;;;;;12.52;64.93;100628.47;4944887;28;120214;-74
2022/11/15 08:07:19;;;;;;;76.30;47.45;;;;;;;12.53;64.71;100625.25;4944315;28;120160;-74
2022/11/15 08:10:06;;;;;;;77.72;47.33;;;;;;;12.53;65.01;100611.50;4942827;28;119812;-73
2022/11/15 08:12:58;;;;;;;80.57;47.37;;;;;;;12.56;65.07;100616.09;4944548;28;119983;-74
2022/11/15 08:15:43;;;;;;;88.93;48.22;;;;;;;12.56;65.38;100624.34;4945086;28;119698;-74
2022/11/15 08:18:28;;;;;;;80.88;45.50;;;;;;;12.62;65.88;100627.22;4943732;28;120380;-73
2022/11/15 08:21:17;;;;;;;70.75;44.17;;;;;;;12.70;65.42;100636.66;4945369;28;119868;-73
2022/11/15 08:24:34;;;;;;;63.28;42.88;;;;;;;12.77;65.56;100624.53;4908643;28;119976;-74
2022/11/15 08:27:19;;;;;;;61.33;43.30;;;;;;;12.81;65.39;100625.91;4943245;28;119845;-73
2022/11/15 08:30:03;;;;;;;68.22;43.95;;;;;;;12.85;65.20;100634.75;4946038;28;119814;-74
2022/11/15 08:32:49;;;;;;;62.15;42.80;;;;;;;12.85;65.30;100629.25;4943390;28;119580;-74
2022/11/15 08:35:34;;;;;;;60.65;43.60;;;;;;;12.87;65.29;100626.78;4925330;28;120282;-74
2022/11/15 08:38:18;;;;;;;64.85;44.13;;;;;;;12.87;65.03;100635.06;4945054;28;119886;-74
2022/11/15 08:41:04;;;;;;;59.70;42.38;;;;;;;12.89;64.75;100637.34;4943970;28;120593;-74
2022/11/15 08:43:48;;;;;;;57.10;40.90;;;;;;;12.90;65.00;100639.63;4942022;28;119864;-72
2022/11/15 08:46:56;;;;;;;60.83;42.65;;;;;;;12.87;64.72;100637.81;4903486;28;119812;-74
2022/11/15 08:49:40;;;;;;;60.38;41.80;;;;;;;12.84;64.79;100641.50;4948827;28;119852;-73
2022/11/15 08:52:25;;;;;;;58.55;41.55;;;;;;;12.84;65.17;100651.75;4942873;28;119690;-73
2022/11/15 08:55:09;;;;;;;58.53;41.27;;;;;;;12.85;65.17;100656.78;4943908;28;120441;-74
2022/11/15 08:57:57;;;;;;;56.50;40.83;;;;;;;12.83;64.59;100662.00;4945083;28;120432;-73
2022/11/15 09:00:41;;;;;;;57.77;41.47;;;;;;;12.81;65.08;100655.44;4933930;28;119855;-74
2022/11/15 09:03:26;;;;;;;58.58;41.42;;;;;;;12.82;65.41;100654.97;4942396;28;119958;-74
2022/11/15 09:06:11;;;;;;;58.17;41.07;;;;;;;12.91;65.63;100649.41;4942496;28;120761;-74
2022/11/15 09:08:55;;;;;;;58.25;40.25;;;;;;;13.02;65.84;100650.91;4944615;28;119641;-73
2022/11/15 09:11:40;;;;;;;55.92;40.30;;;;;;;13.13;65.83;100656.63;4939317;28;120654;-74
2022/11/15 09:14:24;;;;;;;56.22;39.42;;;;;;;13.17;65.50;100651.69;4947078;28;120288;-73
2022/11/15 09:17:17;;;;;;;56.83;39.00;;;;;;;13.28;65.51;100659.47;4941989;28;119895;-74
2022/11/15 09:20:02;;;;;;;55.13;39.15;;;;;;;13.35;64.73;100667.38;4940383;28;119823;-74
2022/11/15 09:22:46;;;;;;;51.90;37.80;;;;;;;13.37;65.07;100662.16;4942563;28;119836;-74
2022/11/15 09:25:40;;;;;;;54.70;38.67;;;;;;;13.37;64.99;100662.94;4919132;28;120525;-74
2022/11/15 09:28:24;;;;;;;49.65;36.10;;;;;;;13.40;65.12;100659.22;4942026;28;120240;-73
2022/11/15 09:31:09;;;;;;;52.35;37.05;;;;;;;13.43;65.07;100658.28;4941047;28;119692;-74
2022/11/15 09:33:53;;;;;;;50.40;36.67;;;;;;;13.47;65.09;100647.09;4940067;28;120328;-74
2022/11/15 09:36:38;;;;;;;48.47;35.55;;;;;;;13.56;65.33;100646.25;4941806;28;120682;-74
2022/11/15 09:39:43;;;;;;;46.97;34.72;;;;;;;13.61;64.85;100649.13;4944420;28;120311;-73
2022/11/15 09:42:34;;;;;;;47.63;34.67;;;;;;;13.67;65.38;100661.00;4942130;28;119819;-73
2022/11/15 09:45:51;;;;;;;46.78;34.25;;;;;;;13.68;65.17;100650.75;4938803;28;120100;-74
2022/11/15 09:48:52;;;;;;;45.33;33.87;;;;;;;13.74;65.08;100657.91;4942645;28;119906;-74
2022/11/15 09:51:36;;;;;;;46.63;33.85;;;;;;;13.78;64.96;100658.47;4940488;28;120164;-73
2022/11/15 09:54:07;;;;;;;47.95;33.63;;;;;;;13.82;64.84;100656.28;4940969;28;119926;-74
2022/11/15 09:56:37;;;;;;;47.90;34.20;;;;;;;13.86;64.66;100655.34;4941731;28;122808;-73
2022/11/15 09:59:27;;;;;;;46.65;34.63;;;;;;;13.88;64.72;100653.63;4943436;28;120135;-73
2022/11/15 10:01:56;;;;;;;45.53;34.20;;;;;;;13.91;65.18;100652.69;4942915;28;119596;-74
2022/11/15 10:04:25;;;;;;;46.60;33.58;;;;;;;13.94;64.79;100651.75;4944449;28;119762;-74
2022/11/15 10:07:14;;;;;;;46.28;33.80;;;;;;;13.96;65.55;100649.28;4941571;28;119980;-73
2022/11/15 10:09:47;;;;;;;43.97;32.53;;;;;;;13.96;65.19;100641.00;4930791;28;119622;-74
2022/11/15 10:12:13;;;;;;;46.13;32.90;;;;;;;14.01;64.96;100653.38;4939433;28;120345;-74
2022/11/15 10:14:40;;;;;;;42.45;32.22;;;;;;;14.01;64.96;100648.63;4939232;28;121084;-74
2022/11/15 10:17:12;;;;;;;44.45;32.17;;;;;;;14.03;65.06;100642.63;4939759;28;119646;-74
2022/11/15 10:20:10;;;;;;;44.85;32.92;;;;;;;14.08;65.26;100648.25;4940761;28;119794;-74
2022/11/15 10:22:46;;;;;;;43.10;32.08;;;;;;;14.13;64.89;100639.28;4939901;28;119421;-74
2022/11/15 10:25:16;;;;;;;44.23;31.83;;;;;;;14.18;65.58;100631.59;4939405;28;120164;-74
2022/11/15 10:27:44;;;;;;;43.03;31.88;;;;;;;14.27;65.17;100639.78;4942712;28;119808;-73
2022/11/15 10:30:16;;;;;;;43.22;31.73;;;;;;;14.29;65.13;100629.03;4922067;28;121249;-74
2022/11/15 10:32:44;;;;;;;41.30;31.85;;;;;;;14.33;64.69;100637.88;4936616;28;119931;-73
2022/11/15 10:35:25;;;;;;;43.78;31.90;;;;;;;14.38;64.85;100642.72;4937819;28;119905;-74
2022/11/15 10:38:04;;;;;;;41.72;30.92;;;;;;;14.43;64.82;100642.84;4921239;28;121429;-72
2022/11/15 10:40:29;;;;;;;42.38;31.65;;;;;;;14.45;64.81;100633.31;4939903;28;120597;-73
2022/11/15 10:43:11;;;;;;;41.83;30.80;;;;;;;14.49;64.42;100637.41;4937494;28;119833;-73
2022/11/15 10:45:38;;;;;;;40.90;31.17;;;;;;;14.49;64.42;100637.41;4939282;28;120492;-74
2022/11/15 10:48:13;;;;;;;42.30;31.23;;;;;;;14.49;64.69;100629.13;4944285;28;120010;-74
2022/11/15 10:50:49;;;;;;;37.47;29.57;;;;;;;14.49;64.11;100640.16;4938508;28;120873;-72
2022/11/15 10:53:18;;;;;;;40.72;30.65;;;;;;;14.50;64.13;100635.41;4938485;28;119912;-74
2022/11/15 10:55:48;;;;;;;40.15;29.60;;;;;;;14.50;64.89;100625.13;4938652;28;120047;-73
2022/11/15 10:58:22;;;;;;;40.08;29.77;;;;;;;14.52;64.47;100633.69;4938041;28;120715;-73
2022/11/15 11:00:55;;;;;;;39.13;29.58;;;;;;;14.54;64.08;100625.69;4938410;28;120267;-73
2022/11/15 11:03:37;;;;;;;38.45;29.48;;;;;;;14.56;64.37;100620.44;4939884;28;119694;-74
2022/11/15 11:06:15;;;;;;;37.77;29.43;;;;;;;14.58;64.54;100617.22;4953869;28;120338;-74
2022/11/15 11:08:55;;;;;;;40.25;29.77;;;;;;;14.62;64.51;100621.28;4937720;28;120048;-73
2022/11/15 11:11:21;;;;;;;36.85;29.40;;;;;;;14.62;64.11;100617.75;4943325;28;119865;-74
2022/11/15 11:13:46;;;;;;;41.03;30.48;;;;;;;14.60;64.17;100618.25;4939279;28;120514;-73
2022/11/15 11:16:21;;;;;;;41.03;30.73;;;;;;;14.60;64.32;100620.25;4946391;28;120674;-73
2022/11/15 11:19:08;;;;;;;40.42;30.67;;;;;;;14.59;64.84;100622.25;4939902;28;120015;-74
2022/11/15 11:21:34;;;;;;;40.20;30.35;;;;;;;14.61;64.49;100619.75;4940160;28;120395;-74
2022/11/15 11:24:41;;;;;;;40.80;30.05;;;;;;;14.61;64.26;100619.00;4937098;28;120215;-73
2022/11/15 11:27:07;;;;;;;43.17;30.37;;;;;;;14.59;64.68;100616.72;4878002;28;120249;-74
2022/11/15 11:30:08;;;;;;;41.10;30.80;;;;;;;14.58;64.74;100612.44;4922498;28;120015;-73
2022/11/15 11:32:40;;;;;;;37.83;29.83;;;;;;;14.59;64.26;100613.19;4937425;28;119356;-72
2022/11/15 11:35:39;;;;;;;41.42;30.55;;;;;;;14.58;64.66;100617.97;4959729;28;120182;-73
2022/11/15 11:38:26;;;;;;;41.83;30.48;;;;;;;14.57;64.24;100613.69;4938763;28;119843;-73
2022/11/15 11:41:14;;;;;;;39.30;30.65;;;;;;;14.58;64.49;100614.44;4939688;28;120149;-74
2022/11/15 11:44:16;;;;;;;37.80;29.60;;;;;;;14.60;64.71;100596.16;4919069;28;119724;-74
2022/11/15 11:46:55;;;;;;;37.70;29.33;;;;;;;14.62;64.91;100607.47;4957986;28;120513;-74
2022/11/15 11:49:43;;;;;;;39.13;29.73;;;;;;;14.66;65.12;100613.56;4942702;28;120090;-73
2022/11/15 11:52:28;;;;;;;39.05;29.85;;;;;;;14.66;64.53;100610.78;4919267;28;120310;-73
2022/11/15 11:55:01;;;;;;;38.55;29.90;;;;;;;14.61;64.65;100596.91;4943779;28;119917;-74
2022/11/15 11:58:05;;;;;;;40.88;30.35;;;;;;;14.65;64.77;100595.47;4940204;28;119523;-72
2022/11/15 12:00:38;;;;;;;38.05;29.70;;;;;;;14.71;65.01;100606.63;4914265;28;119428;-74
2022/11/15 12:03:30;;;;;;;42.37;29.90;;;;;;;14.72;64.51;100602.63;4943098;28;119952;-73
2022/11/15 12:06:26;;;;;;;37.08;28.70;;;;;;;14.74;64.76;100589.09;4943792;28;120106;-74
2022/11/15 12:09:01;;;;;;;37.37;29.03;;;;;;;14.76;64.60;100585.84;4934220;28;119729;-73
2022/11/15 12:11:54;;;;;;;38.22;29.00;;;;;;;14.83;64.56;100593.72;4945375;28;120379;-74
2022/11/15 12:14:37;;;;;;;40.15;29.83;;;;;;;14.85;64.82;100586.47;4943067;28;119993;-73
2022/11/15 12:17:04;;;;;;;40.70;29.58;;;;;;;14.90;64.59;100585.78;4942960;28;120360;-74
2022/11/15 12:19:30;;;;;;;38.50;29.40;;;;;;;14.95;64.87;100576.06;4945465;28;120159;-74
2022/11/15 12:22:11;;;;;;;38.35;29.83;;;;;;;15.00;64.36;100575.38;4942219;28;119829;-73
2022/11/15 12:25:09;;;;;;;36.95;28.10;;;;;;;15.04;63.66;100568.38;4943523;28;120104;-74
2022/11/15 12:27:50;;;;;;;40.13;29.10;;;;;;;15.07;64.03;100572.19;4872296;28;120234;-74
2022/11/15 12:30:20;;;;;;;34.60;27.52;;;;;;;15.08;63.41;100562.66;4944234;28;119900;-72
2022/11/15 12:32:58;;;;;;;36.47;28.58;;;;;;;15.09;63.45;100564.16;4939559;28;119828;-74
2022/11/15 12:35:26;;;;;;;38.43;28.53;;;;;;;15.05;63.61;100564.38;4943866;28;121919;-74
2022/11/15 12:37:55;;;;;;;37.10;28.67;;;;;;;15.00;63.20;100556.03;4942541;28;119470;-74
2022/11/15 12:40:26;;;;;;;36.83;28.40;;;;;;;14.98;63.35;100553.00;4941982;28;119745;-74
2022/11/15 12:43:30;;;;;;;36.50;28.35;;;;;;;14.96;63.70;100550.72;4943590;28;120261;-74